Time;durP1;ratioP1;P1;durP2;ratioP2;P2;SDS_P1;SDS_P2;PMS_P1;PMS_P2;Temp;Humidity;BMP_temperature;BMP_pressure;BME280_temperature;BME280_humidity;BME280_pressure;Samples;Min_cycle;Max_cycle;Signal;HPM_P1;HPM_P2
2021/06/26 00:01:38;;;;;;;16.15;11.13;;;14.80;99.90;;;;;;4876041;29;20109;-79
2021/06/26 00:04:06;;;;;;;18.60;12.32;;;14.70;99.90;;;;;;4876150;29;20123;-79
2021/06/26 00:06:33;;;;;;;14.40;11.43;;;14.70;99.90;;;;;;4891862;29;20049;-80
2021/06/26 00:09:00;;;;;;;15.75;11.65;;;14.60;99.90;;;;;;4891860;29;20037;-80
2021/06/26 00:11:25;;;;;;;13.77;10.90;;;14.60;99.90;;;;;;4876484;29;20077;-79
2021/06/26 00:13:51;;;;;;;14.25;10.57;;;14.60;99.90;;;;;;4891671;29;20049;-80
2021/06/26 00:16:23;;;;;;;16.73;11.05;;;14.60;99.90;;;;;;4875999;29;20052;-79
2021/06/26 00:18:49;;;;;;;14.60;10.77;;;14.60;99.90;;;;;;4875885;29;20084;-80
2021/06/26 00:21:15;;;;;;;16.10;11.30;;;14.60;99.90;;;;;;4875902;29;20029;-79
2021/06/26 00:23:41;;;;;;;14.77;11.00;;;14.60;99.90;;;;;;4891499;29;20048;-79
2021/06/26 00:26:12;;;;;;;15.55;11.23;;;14.60;99.90;;;;;;4983747;28;20041;-79
2021/06/26 00:28:38;;;;;;;16.20;11.73;;;14.50;99.90;;;;;;5049843;28;20037;-79
2021/06/26 00:31:04;;;;;;;15.32;11.73;;;14.60;99.90;;;;;;5049504;28;20552;-79
2021/06/26 00:33:29;;;;;;;12.52;10.52;;;14.40;99.90;;;;;;5067743;28;20031;-79
2021/06/26 00:35:55;;;;;;;15.45;11.80;;;14.40;99.90;;;;;;5067854;28;20036;-79
2021/06/26 00:38:22;;;;;;;15.82;11.23;;;14.40;99.90;;;;;;5049831;28;20044;-79
2021/06/26 00:40:47;;;;;;;15.38;11.77;;;14.40;99.90;;;;;;5049814;28;20093;-80
2021/06/26 00:43:13;;;;;;;16.02;11.45;;;14.40;99.90;;;;;;5049711;28;20029;-79
2021/06/26 00:45:39;;;;;;;14.43;10.77;;;14.40;99.90;;;;;;5032857;28;20035;-79
2021/06/26 00:48:05;;;;;;;14.00;10.85;;;14.40;99.90;;;;;;5053765;23;20049;-79
2021/06/26 00:50:31;;;;;;;15.90;12.05;;;14.40;99.90;;;;;;5050360;28;20052;-79
2021/06/26 00:52:57;;;;;;;16.20;12.15;;;14.30;99.90;;;;;;5033406;28;20029;-79
2021/06/26 00:55:23;;;;;;;14.77;11.35;;;14.30;99.90;;;;;;5033695;28;20052;-79
2021/06/26 00:57:57;;;;;;;13.43;10.40;;;14.30;99.90;;;;;;5066609;28;20044;-79
2021/06/26 01:00:28;;;;;;;17.02;12.40;;;14.30;99.90;;;;;;5033126;28;20072;-79
2021/06/26 01:02:54;;;;;;;16.42;11.50;;;14.40;99.90;;;;;;5049728;28;20029;-80
2021/06/26 01:05:20;;;;;;;14.80;11.65;;;14.40;99.90;;;;;;5049617;28;20021;-79
2021/06/26 01:07:47;;;;;;;16.15;11.15;;;14.40;99.90;;;;;;5033122;28;20028;-79
2021/06/26 01:10:14;;;;;;;14.70;11.55;;;14.30;99.90;;;;;;5049371;28;20119;-79
2021/06/26 01:12:40;;;;;;;15.73;12.23;;;14.30;99.90;;;;;;5049246;28;20029;-79
2021/06/26 01:15:07;;;;;;;14.90;11.82;;;14.20;99.90;;;;;;5048957;28;20036;-79
2021/06/26 01:17:33;;;;;;;15.38;11.15;;;14.20;99.90;;;;;;5049016;28;20041;-79
2021/06/26 01:20:00;;;;;;;17.17;12.25;;;14.30;99.90;;;;;;5049188;28;20036;-78
2021/06/26 01:22:33;;;;;;;14.85;11.27;;;14.20;99.90;;;;;;5065665;28;20131;-79
2021/06/26 01:24:59;;;;;;;15.25;11.25;;;14.20;99.90;;;;;;5066891;28;20362;-79
2021/06/26 01:27:24;;;;;;;15.25;11.30;;;14.20;99.90;;;;;;5032538;28;20033;-79
2021/06/26 01:29:53;;;;;;;15.68;11.77;;;14.20;99.90;;;;;;5066768;28;20025;-79
2021/06/26 01:32:19;;;;;;;15.85;11.20;;;14.20;99.90;;;;;;5066673;28;20040;-80
2021/06/26 01:34:45;;;;;;;15.70;11.77;;;14.10;99.90;;;;;;5066776;28;20031;-79
2021/06/26 01:37:12;;;;;;;16.00;11.00;;;14.20;99.90;;;;;;5066694;28;20542;-78
2021/06/26 01:39:38;;;;;;;15.05;10.57;;;14.20;99.90;;;;;;5065407;28;20033;-79
2021/06/26 01:42:05;;;;;;;16.35;11.82;;;14.20;99.90;;;;;;5065659;28;20033;-79
2021/06/26 01:44:31;;;;;;;15.23;11.48;;;14.20;99.90;;;;;;5066514;28;20025;-79
2021/06/26 01:46:57;;;;;;;14.10;10.90;;;14.30;99.90;;;;;;5065097;28;20032;-79
2021/06/26 01:49:22;;;;;;;15.35;12.23;;;14.20;99.90;;;;;;5048295;28;20048;-79
2021/06/26 01:51:48;;;;;;;14.57;10.38;;;14.20;99.90;;;;;;5066190;28;20036;-79
2021/06/26 01:54:14;;;;;;;14.52;10.63;;;14.30;99.90;;;;;;5066276;28;20488;-80
2021/06/26 01:56:40;;;;;;;13.85;10.93;;;14.30;99.90;;;;;;5066191;28;20052;-80
2021/06/26 01:59:07;;;;;;;16.42;10.80;;;14.20;99.90;;;;;;5048229;28;20029;-79
2021/06/26 02:01:33;;;;;;;14.98;11.18;;;14.20;99.90;;;;;;5065865;28;20051;-80
2021/06/26 02:03:59;;;;;;;16.65;12.55;;;14.10;99.90;;;;;;5064747;28;20384;-79
2021/06/26 02:06:25;;;;;;;14.75;11.30;;;14.00;99.90;;;;;;5064733;28;20063;-79
2021/06/26 02:08:50;;;;;;;14.77;11.48;;;13.90;99.90;;;;;;5048209;28;20025;-80
2021/06/26 02:11:16;;;;;;;17.77;12.40;;;14.00;99.90;;;;;;5065847;28;20060;-79
2021/06/26 02:13:42;;;;;;;16.38;11.18;;;13.90;99.90;;;;;;5065945;28;20033;-79
2021/06/26 02:16:07;;;;;;;16.02;11.00;;;14.00;99.90;;;;;;5064447;28;20673;-80
2021/06/26 02:18:33;;;;;;;15.00;10.82;;;14.10;99.90;;;;;;5065693;28;20029;-79
2021/06/26 02:20:59;;;;;;;19.55;12.02;;;14.10;99.90;;;;;;5064733;28;20044;-79
2021/06/26 02:23:25;;;;;;;18.48;12.38;;;14.00;99.90;;;;;;5064476;28;20497;-79
2021/06/26 02:25:50;;;;;;;17.13;11.50;;;14.00;99.90;;;;;;5065631;28;20039;-79
2021/06/26 02:28:16;;;;;;;18.85;11.00;;;14.00;99.90;;;;;;5065715;28;20093;-79
2021/06/26 02:30:42;;;;;;;17.30;11.63;;;13.90;99.90;;;;;;5065641;28;20036;-80
2021/06/26 02:33:08;;;;;;;17.58;13.10;;;13.90;99.90;;;;;;5065517;28;20025;-79
2021/06/26 02:35:33;;;;;;;17.13;12.40;;;13.90;99.90;;;;;;5065600;28;20040;-80
2021/06/26 02:37:59;;;;;;;15.80;11.88;;;14.00;99.90;;;;;;5065491;28;20044;-79
2021/06/26 02:40:26;;;;;;;18.25;12.20;;;13.90;99.90;;;;;;5065602;28;20028;-79
2021/06/26 02:42:52;;;;;;;18.73;12.68;;;13.90;99.90;;;;;;5065500;28;20052;-79
2021/06/26 02:45:17;;;;;;;18.02;12.88;;;13.80;99.90;;;;;;5065402;28;20036;-79
2021/06/26 02:47:43;;;;;;;18.15;12.70;;;13.70;99.90;;;;;;5065033;28;20087;-79
2021/06/26 02:50:09;;;;;;;18.92;12.60;;;13.70;99.90;;;;;;5065524;28;20032;-79
2021/06/26 02:52:35;;;;;;;17.00;12.23;;;13.60;99.90;;;;;;5067657;28;20139;-79
2021/06/26 02:55:02;;;;;;;17.05;11.70;;;13.60;99.90;;;;;;5072113;28;20107;-78
2021/06/26 02:57:28;;;;;;;17.55;12.65;;;13.60;99.90;;;;;;5071916;28;20043;-79
2021/06/26 02:59:53;;;;;;;17.52;12.98;;;13.50;99.90;;;;;;5072207;28;20505;-79
2021/06/26 03:02:19;;;;;;;20.10;13.55;;;13.60;99.90;;;;;;5071805;28;20102;-79
2021/06/26 03:04:44;;;;;;;16.45;11.75;;;13.60;99.90;;;;;;5071919;28;20029;-79
2021/06/26 03:07:10;;;;;;;18.83;13.23;;;13.50;99.90;;;;;;5071956;28;20060;-79
2021/06/26 03:09:37;;;;;;;16.55;11.93;;;13.50;99.90;;;;;;5071988;28;20057;-79
2021/06/26 03:12:04;;;;;;;17.73;12.55;;;13.40;99.90;;;;;;5071818;28;20121;-79
2021/06/26 03:14:29;;;;;;;15.85;11.85;;;13.50;99.90;;;;;;5071966;28;20393;-79
2021/06/26 03:16:55;;;;;;;15.52;10.85;;;13.50;99.90;;;;;;5070331;28;20051;-79
2021/06/26 03:19:21;;;;;;;17.75;11.00;;;13.50;99.90;;;;;;5071826;28;20021;-78
2021/06/26 03:21:47;;;;;;;15.48;10.68;;;13.40;99.90;;;;;;5071697;28;20514;-79
2021/06/26 03:24:12;;;;;;;17.27;11.00;;;13.40;99.90;;;;;;5070616;28;20025;-79
2021/06/26 03:26:38;;;;;;;15.05;10.30;;;13.40;99.90;;;;;;5071795;28;20500;-79
2021/06/26 03:29:05;;;;;;;17.98;11.60;;;13.40;99.90;;;;;;5071857;28;20045;-79
2021/06/26 03:31:32;;;;;;;17.55;11.50;;;13.40;99.90;;;;;;5070576;28;20393;-79
2021/06/26 03:33:58;;;;;;;14.60;10.43;;;13.40;99.90;;;;;;5071627;28;20096;-80
2021/06/26 03:36:24;;;;;;;17.08;11.15;;;13.40;99.90;;;;;;5069871;28;20039;-79
2021/06/26 03:38:51;;;;;;;15.68;12.00;;;13.50;99.90;;;;;;5053200;28;20049;-79
2021/06/26 03:41:17;;;;;;;17.52;11.98;;;13.50;99.90;;;;;;5053040;28;20110;-79
2021/06/26 03:43:42;;;;;;;16.60;11.35;;;13.50;99.90;;;;;;5071233;28;20033;-79
2021/06/26 03:46:08;;;;;;;17.15;11.15;;;13.60;99.90;;;;;;5069816;28;20036;-79
2021/06/26 03:48:34;;;;;;;16.02;10.95;;;13.60;99.90;;;;;;5071062;28;20053;-79
2021/06/26 03:51:00;;;;;;;16.35;11.27;;;13.60;99.90;;;;;;5071047;28;20077;-79
2021/06/26 03:53:27;;;;;;;15.23;10.40;;;13.60;99.90;;;;;;5053031;28;20374;-79
2021/06/26 03:55:52;;;;;;;16.08;11.45;;;13.60;99.90;;;;;;5071069;28;20061;-79
2021/06/26 03:58:23;;;;;;;16.15;11.35;;;13.70;99.90;;;;;;5070776;28;20090;-79
2021/06/26 04:00:50;;;;;;;17.35;12.57;;;13.70;99.90;;;;;;5071008;28;20079;-79
2021/06/26 04:03:16;;;;;;;14.40;10.13;;;13.70;99.90;;;;;;5070752;28;20032;-79
2021/06/26 04:05:45;;;;;;;16.55;11.95;;;13.80;99.90;;;;;;5066772;28;20036;-79
2021/06/26 04:08:11;;;;;;;16.55;11.10;;;13.90;99.90;;;;;;5049824;28;20033;-79
2021/06/26 04:10:38;;;;;;;19.15;12.27;;;13.90;99.90;;;;;;5066572;28;20047;-79
2021/06/26 04:13:04;;;;;;;15.38;11.52;;;13.90;99.90;;;;;;5049813;28;20033;-79
2021/06/26 04:15:31;;;;;;;19.77;12.88;;;14.00;99.90;;;;;;5049720;28;20025;-79
2021/06/26 04:17:56;;;;;;;18.90;13.65;;;14.00;99.90;;;;;;5049591;28;20047;-79
2021/06/26 04:20:22;;;;;;;18.88;13.70;;;14.10;99.90;;;;;;5049677;28;20021;-79
2021/06/26 04:22:48;;;;;;;17.75;12.55;;;14.20;99.90;;;;;;5067437;28;20039;-79
2021/06/26 04:25:14;;;;;;;16.35;11.98;;;14.20;99.90;;;;;;5050006;28;20105;-79
2021/06/26 04:27:44;;;;;;;17.33;13.20;;;14.30;99.90;;;;;;5050013;28;20083;-79
2021/06/26 04:30:11;;;;;;;19.33;13.63;;;14.40;99.90;;;;;;5050788;28;20106;-79
2021/06/26 04:32:38;;;;;;;17.02;12.35;;;14.40;99.90;;;;;;5067059;28;20066;-80
2021/06/26 04:35:05;;;;;;;18.27;12.82;;;14.50;99.90;;;;;;5049299;28;20055;-79
2021/06/26 04:37:31;;;;;;;16.50;12.95;;;14.60;99.90;;;;;;5049062;28;20101;-79
2021/06/26 04:39:57;;;;;;;21.13;14.07;;;14.70;99.90;;;;;;5067395;28;20087;-79
2021/06/26 04:42:23;;;;;;;21.17;15.30;;;14.70;99.90;;;;;;5065679;28;20064;-79
2021/06/26 04:44:49;;;;;;;16.27;12.25;;;14.80;99.90;;;;;;5065693;28;20051;-79
2021/06/26 04:47:14;;;;;;;20.13;14.32;;;14.90;99.90;;;;;;5072739;22;20052;-79
2021/06/26 04:49:40;;;;;;;20.05;14.68;;;14.90;99.90;;;;;;5049114;28;20037;-79
2021/06/26 04:52:07;;;;;;;20.42;14.32;;;15.00;99.90;;;;;;5049167;28;20033;-79
2021/06/26 04:54:32;;;;;;;20.48;14.32;;;15.10;99.90;;;;;;5065744;28;20029;-79
2021/06/26 04:56:58;;;;;;;21.75;15.00;;;15.10;99.90;;;;;;5049169;28;20087;-78
2021/06/26 04:59:23;;;;;;;20.27;13.75;;;15.20;99.90;;;;;;5049281;28;20126;-79
2021/06/26 05:01:49;;;;;;;19.40;14.32;;;15.20;99.90;;;;;;5049087;28;20127;-79
2021/06/26 05:04:15;;;;;;;22.30;15.48;;;15.30;99.90;;;;;;5067121;28;20040;-79
2021/06/26 05:06:40;;;;;;;21.02;14.85;;;15.30;99.90;;;;;;5048996;28;20031;-79
2021/06/26 05:09:06;;;;;;;20.00;14.20;;;15.40;99.90;;;;;;5066906;28;20029;-80
2021/06/26 05:11:31;;;;;;;21.08;14.38;;;15.50;99.90;;;;;;5048940;28;20032;-80
2021/06/26 05:13:57;;;;;;;21.98;15.48;;;15.60;99.90;;;;;;5066832;28;20082;-79
2021/06/26 05:16:23;;;;;;;21.90;15.68;;;15.60;99.90;;;;;;5048619;28;20100;-79
2021/06/26 05:18:48;;;;;;;19.90;15.15;;;15.70;99.90;;;;;;5066615;28;20025;-79
2021/06/26 05:21:15;;;;;;;18.45;13.90;;;15.70;99.90;;;;;;5048327;28;20037;-79
2021/06/26 05:23:44;;;;;;;20.17;14.55;;;15.70;99.90;;;;;;5063311;28;20049;-79
2021/06/26 05:26:10;;;;;;;19.25;14.02;;;15.90;99.90;;;;;;5066365;28;20033;-79
2021/06/26 05:28:37;;;;;;;17.45;12.65;;;16.00;99.90;;;;;;5081706;28;20084;-80
2021/06/26 05:31:03;;;;;;;19.55;13.88;;;16.20;99.90;;;;;;5066149;28;20032;-80
2021/06/26 05:33:29;;;;;;;19.20;13.88;;;16.20;99.90;;;;;;5081513;28;20033;-79
2021/06/26 05:35:55;;;;;;;19.10;14.80;;;16.30;99.90;;;;;;5065841;28;20025;-80
2021/06/26 05:38:20;;;;;;;20.50;14.57;;;16.30;99.90;;;;;;5065571;28;20036;-79
2021/06/26 05:40:46;;;;;;;23.73;14.82;;;16.40;99.90;;;;;;5081484;28;20029;-77
2021/06/26 05:43:12;;;;;;;18.95;13.23;;;16.40;99.90;;;;;;5081381;28;20033;-79
2021/06/26 05:45:58;;;;;;;20.73;13.77;;;16.50;99.90;;;;;;5081000;28;20053;-79
2021/06/26 05:48:24;;;;;;;16.30;10.75;;;16.60;99.90;;;;;;4968003;28;20074;-80
2021/06/26 05:50:49;;;;;;;19.20;13.20;;;16.70;99.90;;;;;;4984308;28;20035;-80
2021/06/26 05:53:18;;;;;;;18.73;13.85;;;16.70;99.90;;;;;;4983380;28;20050;-80
2021/06/26 05:55:56;;;;;;;19.23;13.55;;;16.70;99.90;;;;;;4967162;28;20102;-80
2021/06/26 05:58:24;;;;;;;21.80;14.32;;;16.80;99.90;;;;;;4951240;28;20039;-80
2021/06/26 06:00:49;;;;;;;20.67;15.13;;;16.90;99.90;;;;;;4951478;28;20054;-80
2021/06/26 06:03:15;;;;;;;18.77;14.30;;;17.00;99.90;;;;;;4967743;28;20038;-80
2021/06/26 06:05:40;;;;;;;20.60;14.95;;;17.10;99.90;;;;;;4984033;28;20078;-79
2021/06/26 06:08:06;;;;;;;19.42;14.80;;;17.20;99.90;;;;;;4983650;28;20034;-80
2021/06/26 06:10:32;;;;;;;18.98;14.05;;;17.30;99.90;;;;;;4984013;28;20139;-80
2021/06/26 06:12:57;;;;;;;19.17;13.65;;;17.50;99.90;;;;;;4983902;28;20039;-80
2021/06/26 06:15:23;;;;;;;20.10;14.75;;;17.60;99.90;;;;;;4983652;28;20039;-80
2021/06/26 06:17:48;;;;;;;18.00;13.73;;;17.60;99.90;;;;;;4951433;28;20223;-80
2021/06/26 06:20:14;;;;;;;19.40;13.88;;;17.70;99.90;;;;;;4983994;28;20071;-80
2021/06/26 06:22:40;;;;;;;19.85;13.57;;;17.80;99.90;;;;;;4967881;28;20065;-80
2021/06/26 06:25:10;;;;;;;18.83;13.55;;;18.10;99.90;;;;;;5012389;28;20037;-79
2021/06/26 06:27:36;;;;;;;19.30;13.55;;;18.30;99.90;;;;;;5065479;28;20040;-80
2021/06/26 06:30:04;;;;;;;17.77;12.93;;;18.40;99.90;;;;;;5063897;28;20037;-80
2021/06/26 06:32:29;;;;;;;16.30;12.77;;;18.60;99.90;;;;;;5064865;28;20063;-80
2021/06/26 06:34:55;;;;;;;17.20;12.80;;;18.80;99.90;;;;;;5046999;28;20025;-81
2021/06/26 06:37:21;;;;;;;16.15;11.48;;;19.00;99.90;;;;;;5065099;28;20046;-80
2021/06/26 06:39:46;;;;;;;13.98;10.73;;;19.10;99.90;;;;;;5064952;28;20016;-80
2021/06/26 06:42:12;;;;;;;15.43;11.95;;;19.20;99.90;;;;;;5064826;28;20048;-80
2021/06/26 06:44:37;;;;;;;15.10;11.70;;;19.20;99.90;;;;;;5064910;28;20025;-80
2021/06/26 06:47:04;;;;;;;13.90;11.15;;;19.10;99.90;;;;;;5064458;28;20021;-81
2021/06/26 06:49:29;;;;;;;14.60;10.20;;;19.50;99.90;;;;;;5046756;28;20044;-81
2021/06/26 06:51:55;;;;;;;12.23;9.48;;;19.60;99.90;;;;;;5053540;28;20029;-81
2021/06/26 06:54:20;;;;;;;11.27;9.43;;;19.80;99.90;;;;;;5063242;28;20027;-81
2021/06/26 06:56:46;;;;;;;11.30;9.40;;;19.80;99.90;;;;;;5046877;28;20033;-81
2021/06/26 06:59:12;;;;;;;12.15;8.57;;;19.90;99.90;;;;;;5046855;28;20055;-81
2021/06/26 07:01:37;;;;;;;9.55;8.00;;;20.20;99.90;;;;;;5046859;28;20017;-81
2021/06/26 07:04:03;;;;;;;10.90;8.15;;;20.40;99.90;;;;;;5046653;28;20397;-81
2021/06/26 07:06:29;;;;;;;10.43;8.65;;;20.60;99.90;;;;;;5030140;28;20036;-80
2021/06/26 07:08:54;;;;;;;8.57;7.68;;;20.90;99.90;;;;;;5030266;28;20080;-81
2021/06/26 07:11:22;;;;;;;12.25;8.68;;;21.10;99.90;;;;;;5030343;28;20043;-81
2021/06/26 07:13:47;;;;;;;10.68;7.38;;;20.80;99.90;;;;;;5064860;28;20473;-81
2021/06/26 07:16:13;;;;;;;8.00;6.53;;;20.90;99.90;;;;;;5046407;28;20040;-81
2021/06/26 07:18:39;;;;;;;9.27;7.53;;;21.00;99.90;;;;;;5046569;28;20033;-81
2021/06/26 07:21:04;;;;;;;7.10;6.03;;;20.80;99.90;;;;;;5046547;28;20021;-81
2021/06/26 07:23:31;;;;;;;9.25;7.57;;;20.90;99.90;;;;;;5064412;28;20056;-81
2021/06/26 07:25:56;;;;;;;8.38;6.90;;;21.00;99.90;;;;;;5046555;28;20037;-81
2021/06/26 07:28:22;;;;;;;8.40;7.40;;;21.10;99.90;;;;;;5046095;28;20025;-79
2021/06/26 07:30:48;;;;;;;8.10;6.63;;;21.30;99.90;;;;;;5064243;28;20033;-79
2021/06/26 07:33:13;;;;;;;7.82;7.03;;;21.60;99.90;;;;;;5046360;28;20029;-78
2021/06/26 07:35:39;;;;;;;7.88;6.70;;;21.70;99.90;;;;;;5046554;28;20039;-78
2021/06/26 07:38:05;;;;;;;7.88;5.80;;;22.00;99.90;;;;;;5030001;28;20051;-78
2021/06/26 07:40:31;;;;;;;8.85;6.00;;;22.10;99.90;;;;;;5048900;28;20107;-78
2021/06/26 07:42:56;;;;;;;8.55;7.03;;;22.30;99.90;;;;;;5050308;28;20048;-78
2021/06/26 07:45:22;;;;;;;10.68;7.05;;;22.20;99.90;;;;;;5050183;28;20048;-80
2021/06/26 07:47:48;;;;;;;6.60;5.18;;;22.30;99.90;;;;;;5039244;23;20061;-78
2021/06/26 07:50:13;;;;;;;6.57;5.25;;;22.80;99.90;;;;;;5029647;28;20030;-78
2021/06/26 07:52:39;;;;;;;6.28;5.38;;;22.60;99.90;;;;;;5030432;28;20065;-80
2021/06/26 07:55:06;;;;;;;7.00;5.25;;;22.70;99.90;;;;;;5050167;28;20450;-79
2021/06/26 07:57:32;;;;;;;6.22;5.55;;;22.90;99.90;;;;;;5031811;28;20037;-79
2021/06/26 07:59:58;;;;;;;5.88;5.18;;;22.90;99.90;;;;;;5048657;28;20483;-79
2021/06/26 08:02:23;;;;;;;6.82;5.00;;;22.70;99.90;;;;;;5029986;28;20044;-79
2021/06/26 08:04:49;;;;;;;7.00;5.70;;;22.80;99.90;;;;;;5030013;28;20037;-78
2021/06/26 08:07:14;;;;;;;6.00;4.80;;;22.70;99.90;;;;;;5013641;28;20093;-78
2021/06/26 08:09:40;;;;;;;5.00;4.50;;;23.10;99.90;;;;;;5047751;28;20037;-78
2021/06/26 08:12:06;;;;;;;7.05;5.93;;;23.30;99.90;;;;;;5013411;28;20038;-78
2021/06/26 08:14:32;;;;;;;5.82;5.18;;;23.00;99.90;;;;;;5029858;28;20036;-78
2021/06/26 08:16:57;;;;;;;5.93;5.15;;;22.90;99.90;;;;;;5047364;28;20072;-78
2021/06/26 08:19:23;;;;;;;6.88;5.60;;;22.80;99.90;;;;;;5047592;28;20071;-78
2021/06/26 08:21:49;;;;;;;5.00;4.22;;;22.80;99.90;;;;;;5047715;28;20389;-78
2021/06/26 08:24:15;;;;;;;6.97;4.88;;;23.50;99.90;;;;;;5029829;28;20029;-78
2021/06/26 08:26:41;;;;;;;6.78;5.93;;;23.50;99.90;;;;;;5013366;28;20041;-78
2021/06/26 08:29:06;;;;;;;5.57;5.03;;;23.40;99.90;;;;;;5029800;28;20033;-78
2021/06/26 08:31:32;;;;;;;6.53;5.40;;;23.30;99.90;;;;;;5029393;28;20096;-78
2021/06/26 08:33:57;;;;;;;8.32;6.13;;;23.10;99.90;;;;;;5047306;28;20036;-78
2021/06/26 08:36:23;;;;;;;5.60;5.00;;;23.30;99.90;;;;;;5012997;28;20040;-78
2021/06/26 08:38:49;;;;;;;7.63;6.05;;;23.40;99.90;;;;;;5013045;28;20033;-78
2021/06/26 08:41:18;;;;;;;9.23;6.80;;;23.50;99.90;;;;;;5047029;28;20029;-78
2021/06/26 08:43:44;;;;;;;7.68;6.93;;;23.60;99.90;;;;;;5029601;28;20041;-78
2021/06/26 08:46:30;;;;;;;8.73;6.15;;;23.50;99.90;;;;;;5041730;28;20036;-78
2021/06/26 08:48:56;;;;;;;11.43;8.38;;;23.60;99.90;;;;;;4971179;28;20047;-78
2021/06/26 08:51:22;;;;;;;6.60;5.57;;;23.70;99.90;;;;;;4983836;28;20043;-78
2021/06/26 08:53:47;;;;;;;7.45;6.32;;;23.80;99.90;;;;;;4985533;28;20039;-78
2021/06/26 08:56:13;;;;;;;7.47;6.57;;;24.00;99.90;;;;;;4984722;28;20478;-79
2021/06/26 08:58:38;;;;;;;8.57;6.95;;;24.00;99.90;;;;;;4968752;28;20099;-79
2021/06/26 09:01:04;;;;;;;6.57;5.80;;;24.20;99.90;;;;;;4969285;28;20100;-78
2021/06/26 09:03:30;;;;;;;11.23;8.50;;;24.50;99.90;;;;;;4984828;28;20038;-78
2021/06/26 09:06:04;;;;;;;8.23;5.85;;;23.70;99.90;;;;;;4984763;28;20050;-78
2021/06/26 09:08:30;;;;;;;7.28;5.70;;;24.20;99.90;;;;;;4985267;28;20034;-79
2021/06/26 09:10:55;;;;;;;7.53;6.22;;;24.50;99.90;;;;;;4984195;28;20102;-79
2021/06/26 09:13:24;;;;;;;6.50;5.90;;;24.90;99.90;;;;;;4984719;28;20082;-78
2021/06/26 09:16:06;;;;;;;7.82;6.47;;;24.90;99.90;;;;;;4985198;28;20129;-78
2021/06/26 09:18:40;;;;;;;9.77;8.27;;;24.70;99.90;;;;;;4984879;28;20043;-78
2021/06/26 09:21:17;;;;;;;8.48;7.60;;;24.50;99.90;;;;;;4984762;28;20034;-79
2021/06/26 09:23:42;;;;;;;6.57;5.85;;;24.50;99.90;;;;;;4985210;28;20047;-79
2021/06/26 09:26:11;;;;;;;6.00;5.40;;;25.10;99.90;;;;;;5019040;28;20041;-79
2021/06/26 09:28:40;;;;;;;7.53;6.72;;;24.90;99.90;;;;;;5037512;28;20033;-78
2021/06/26 09:31:17;;;;;;;6.68;6.07;;;25.00;99.90;;;;;;5029476;28;20038;-80
2021/06/26 09:33:53;;;;;;;9.25;8.23;;;25.20;99.90;;;;;;5012523;28;20037;-79
2021/06/26 09:36:23;;;;;;;7.63;6.82;;;25.20;99.90;;;;;;5040018;28;20029;-80
2021/06/26 09:39:05;;;;;;;;;;;25.50;99.90;;;;;;5031785;28;20062;-80
2021/06/26 09:41:31;;;;;;;7.93;7.13;;;25.50;99.90;;;;;;5024158;28;19956;-80
2021/06/26 09:44:11;;;;;;;7.68;6.22;;;26.10;99.90;;;;;;5024874;28;20022;-80
2021/06/26 09:46:48;;;;;;;8.35;5.68;;;26.00;99.90;;;;;;5008359;28;20030;-79
2021/06/26 09:49:14;;;;;;;6.57;5.97;;;26.10;99.90;;;;;;5033174;28;20054;-79
2021/06/26 09:51:40;;;;;;;6.32;5.72;;;25.60;99.90;;;;;;5045868;28;20044;-79
2021/06/26 09:54:08;;;;;;;8.90;6.30;;;25.80;99.90;;;;;;5043779;28;20060;-78
2021/06/26 09:56:42;;;;;;;6.45;5.47;;;26.00;99.90;;;;;;5021590;28;20050;-78
2021/06/26 09:59:09;;;;;;;7.30;6.00;;;25.70;99.90;;;;;;5035186;28;20026;-79
2021/06/26 10:01:36;;;;;;;9.20;6.95;;;25.70;99.90;;;;;;5036056;28;20030;-79
2021/06/26 10:04:04;;;;;;;7.22;6.10;;;25.50;99.90;;;;;;5035550;28;20052;-79
2021/06/26 10:06:32;;;;;;;8.02;5.97;;;25.60;99.90;;;;;;5031930;28;20038;-80
2021/06/26 10:08:58;;;;;;;10.32;8.15;;;25.80;99.90;;;;;;5017055;28;20030;-79
2021/06/26 10:11:23;;;;;;;7.47;6.65;;;25.90;99.90;;;;;;5045155;28;20477;-79
2021/06/26 10:13:50;;;;;;;8.95;7.15;;;26.00;99.90;;;;;;4997274;28;20034;-79
2021/06/26 10:16:16;;;;;;;8.05;7.13;;;26.10;99.90;;;;;;5029969;28;20018;-79
2021/06/26 10:18:43;;;;;;;10.30;8.45;;;26.20;99.90;;;;;;5045056;28;20033;-79
2021/06/26 10:21:09;;;;;;;8.73;6.65;;;25.70;99.90;;;;;;5036807;28;20117;-79
2021/06/26 10:23:36;;;;;;;8.02;7.22;;;26.40;99.90;;;;;;5036965;28;20040;-79
2021/06/26 10:26:05;;;;;;;8.38;7.13;;;26.90;99.90;;;;;;5010997;28;20083;-80
2021/06/26 10:28:31;;;;;;;6.20;4.93;;;27.10;99.90;;;;;;5010285;28;20067;-80
2021/06/26 10:31:06;;;;;;;7.72;6.93;;;27.40;99.90;;;;;;5010505;28;20049;-80
2021/06/26 10:33:32;;;;;;;7.93;6.60;;;27.10;99.90;;;;;;5027368;28;20097;-80
2021/06/26 10:36:00;;;;;;;8.00;6.55;;;27.10;99.90;;;;;;5027319;28;20044;-80
2021/06/26 10:38:27;;;;;;;7.53;6.80;;;26.80;99.90;;;;;;5024186;28;20041;-81
2021/06/26 10:40:55;;;;;;;9.90;6.25;;;26.80;99.90;;;;;;5010619;28;20045;-81
2021/06/26 10:43:32;;;;;;;7.67;5.23;;;27.30;99.90;;;;;;5044708;28;20030;-81
2021/06/26 10:46:24;;;;;;;7.35;6.65;;;27.80;99.90;;;;;;5043612;28;20660;-79
2021/06/26 10:49:02;;;;;;;12.13;6.90;;;27.70;99.90;;;;;;4983211;28;20051;-80
2021/06/26 10:51:35;;;;;;;9.55;7.03;;;26.80;99.90;;;;;;4951010;28;20041;-80
2021/06/26 10:54:18;;;;;;;7.72;6.38;;;26.20;99.90;;;;;;4967310;28;20054;-80
2021/06/26 10:56:47;;;;;;;7.47;5.40;;;26.20;99.90;;;;;;4975236;28;20127;-81
2021/06/26 10:59:18;;;;;;;5.90;5.07;;;26.00;99.90;;;;;;4966930;28;20125;-80
2021/06/26 11:02:00;;;;;;;5.97;5.38;;;26.90;99.90;;;;;;4967051;28;20133;-80
2021/06/26 11:04:26;;;;;;;7.80;7.00;;;27.10;99.90;;;;;;4966941;28;20035;-80
2021/06/26 11:07:31;;;;;;;8.35;7.13;;;26.00;99.90;;;;;;4983053;28;20074;-81
2021/06/26 11:10:13;;;;;;;8.00;6.90;;;25.40;99.90;;;;;;4958676;28;20042;-81
2021/06/26 11:12:44;;;;;;;13.90;10.63;;;25.90;99.90;;;;;;4950600;28;20043;-80
2021/06/26 11:15:11;;;;;;;10.10;7.70;;;25.50;99.90;;;;;;4970474;28;20119;-80
2021/06/26 11:17:39;;;;;;;7.28;5.93;;;25.90;99.90;;;;;;4987008;28;20050;-80
2021/06/26 11:20:09;;;;;;;10.30;7.22;;;25.80;99.90;;;;;;4971131;28;20498;-80
2021/06/26 11:22:34;;;;;;;6.18;5.57;;;25.90;99.90;;;;;;4970819;28;20046;-80
2021/06/26 11:25:01;;;;;;;7.53;5.13;;;25.70;99.90;;;;;;4992332;28;20421;-80
2021/06/26 11:27:26;;;;;;;9.60;7.50;;;25.50;99.90;;;;;;5000666;28;20463;-79
2021/06/26 11:30:00;;;;;;;10.23;8.82;;;25.10;99.90;;;;;;5007486;28;20065;-80
2021/06/26 11:32:26;;;;;;;6.93;6.18;;;24.50;99.90;;;;;;5007702;28;20405;-80
2021/06/26 11:34:59;;;;;;;6.47;5.50;;;24.60;99.90;;;;;;5007488;28;20034;-80
2021/06/26 11:37:41;;;;;;;7.70;6.55;;;24.50;99.90;;;;;;5007632;28;20101;-80
2021/06/26 11:40:13;;;;;;;5.55;4.97;;;24.60;99.90;;;;;;5008665;28;20090;-79
2021/06/26 11:42:48;;;;;;;6.22;5.63;;;24.80;99.90;;;;;;4985574;28;20065;-80
2021/06/26 11:45:15;;;;;;;11.13;6.03;;;24.40;99.90;;;;;;5008510;28;20097;-80
2021/06/26 11:47:44;;;;;;;7.40;6.65;;;24.40;99.90;;;;;;5025435;23;20404;-79
2021/06/26 11:50:16;;;;;;;6.82;6.13;;;24.40;99.90;;;;;;5050635;28;20067;-80
2021/06/26 11:52:41;;;;;;;7.05;6.43;;;24.50;99.90;;;;;;5034105;28;20036;-79
2021/06/26 11:55:08;;;;;;;10.68;7.88;;;24.50;99.90;;;;;;5050302;28;20036;-79
2021/06/26 11:57:34;;;;;;;8.75;7.75;;;24.40;99.90;;;;;;5068328;28;20040;-80
2021/06/26 11:59:59;;;;;;;7.07;6.18;;;24.30;99.90;;;;;;5050261;28;20033;-79
2021/06/26 12:02:38;;;;;;;6.88;6.10;;;24.50;99.90;;;;;;5050194;28;20043;-79
2021/06/26 12:05:05;;;;;;;8.05;6.60;;;24.50;99.90;;;;;;5068249;28;20036;-79
2021/06/26 12:07:38;;;;;;;8.38;5.57;;;24.80;99.90;;;;;;5068161;28;20032;-79
2021/06/26 12:10:08;;;;;;;7.95;6.43;;;24.70;99.90;;;;;;5068430;28;20033;-79
2021/06/26 12:12:37;;;;;;;;;;;25.00;99.90;;;;;;5068513;28;20040;-79
2021/06/26 12:15:09;;;;;;;8.52;6.32;;;24.80;99.90;;;;;;5067901;28;19936;-79
2021/06/26 12:17:35;;;;;;;8.18;6.43;;;24.90;99.90;;;;;;5067733;28;20037;-79
2021/06/26 12:20:06;;;;;;;6.60;5.97;;;25.20;99.90;;;;;;5067612;28;20108;-79
2021/06/26 12:22:34;;;;;;;7.93;5.90;;;25.20;99.90;;;;;;5067585;28;20063;-79
2021/06/26 12:25:21;;;;;;;5.43;4.93;;;25.30;99.90;;;;;;5066548;28;20048;-79
2021/06/26 12:27:47;;;;;;;7.07;6.43;;;25.50;99.90;;;;;;5049564;28;20039;-79
2021/06/26 12:30:17;;;;;;;5.88;5.07;;;25.30;99.90;;;;;;5067334;28;20033;-79
2021/06/26 12:32:44;;;;;;;6.93;6.25;;;25.50;99.90;;;;;;5067412;28;20037;-79
2021/06/26 12:35:15;;;;;;;6.43;5.75;;;25.20;99.90;;;;;;5049471;28;20025;-79
2021/06/26 12:37:46;;;;;;;6.13;5.50;;;25.20;99.90;;;;;;5067315;28;20067;-79